sensor_id;sensor_type;location;lat;lon;timestamp;P1;durP1;ratioP1;P2;durP2;ratioP2
4674;SDS011;2351;50.812;12.872;2024-03-08T00:01:28;41.83;;;22.10;;
4674;SDS011;2351;50.812;12.872;2024-03-08T00:04:00;44.93;;;21.20;;
4674;SDS011;2351;50.812;12.872;2024-03-08T00:06:33;45.83;;;20.07;;
4674;SDS011;2351;50.812;12.872;2024-03-08T00:09:05;43.00;;;21.20;;
4674;SDS011;2351;50.812;12.872;2024-03-08T00:11:37;37.03;;;20.27;;
4674;SDS011;2351;50.812;12.872;2024-03-08T00:14:09;35.33;;;19.00;;
4674;SDS011;2351;50.812;12.872;2024-03-08T00:16:41;38.47;;;19.30;;
4674;SDS011;2351;50.812;12.872;2024-03-08T00:19:13;40.40;;;21.33;;
4674;SDS011;2351;50.812;12.872;2024-03-08T00:21:46;41.33;;;20.97;;
4674;SDS011;2351;50.812;12.872;2024-03-08T00:24:18;37.70;;;20.13;;
4674;SDS011;2351;50.812;12.872;2024-03-08T00:26:54;40.10;;;18.30;;
4674;SDS011;2351;50.812;12.872;2024-03-08T00:29:26;38.60;;;20.97;;
4674;SDS011;2351;50.812;12.872;2024-03-08T00:31:57;31.30;;;18.37;;
4674;SDS011;2351;50.812;12.872;2024-03-08T00:34:29;59.93;;;21.67;;
4674;SDS011;2351;50.812;12.872;2024-03-08T00:37:03;39.53;;;19.77;;
4674;SDS011;2351;50.812;12.872;2024-03-08T00:39:35;35.30;;;18.37;;
4674;SDS011;2351;50.812;12.872;2024-03-08T00:42:06;40.83;;;18.50;;
4674;SDS011;2351;50.812;12.872;2024-03-08T00:44:38;40.30;;;21.80;;
4674;SDS011;2351;50.812;12.872;2024-03-08T00:47:10;40.63;;;21.10;;
4674;SDS011;2351;50.812;12.872;2024-03-08T00:49:42;48.40;;;21.03;;
4674;SDS011;2351;50.812;12.872;2024-03-08T00:52:15;42.80;;;21.10;;
4674;SDS011;2351;50.812;12.872;2024-03-08T00:54:48;42.30;;;21.53;;
4674;SDS011;2351;50.812;12.872;2024-03-08T00:57:20;39.83;;;20.53;;
4674;SDS011;2351;50.812;12.872;2024-03-08T00:59:52;37.50;;;19.47;;
4674;SDS011;2351;50.812;12.872;2024-03-08T01:02:24;41.00;;;20.93;;
4674;SDS011;2351;50.812;12.872;2024-03-08T01:04:55;38.40;;;20.20;;
4674;SDS011;2351;50.812;12.872;2024-03-08T01:07:29;39.33;;;21.00;;
4674;SDS011;2351;50.812;12.872;2024-03-08T01:10:01;41.37;;;22.17;;
4674;SDS011;2351;50.812;12.872;2024-03-08T01:12:32;42.30;;;21.57;;
4674;SDS011;2351;50.812;12.872;2024-03-08T01:15:05;44.40;;;22.50;;
4674;SDS011;2351;50.812;12.872;2024-03-08T01:17:37;41.70;;;22.50;;
4674;SDS011;2351;50.812;12.872;2024-03-08T01:20:09;43.50;;;21.37;;
4674;SDS011;2351;50.812;12.872;2024-03-08T01:22:43;46.73;;;21.83;;
4674;SDS011;2351;50.812;12.872;2024-03-08T01:25:15;47.43;;;22.60;;
4674;SDS011;2351;50.812;12.872;2024-03-08T01:27:47;56.70;;;26.70;;
4674;SDS011;2351;50.812;12.872;2024-03-08T01:30:18;56.27;;;25.60;;
4674;SDS011;2351;50.812;12.872;2024-03-08T01:32:50;47.43;;;24.97;;
4674;SDS011;2351;50.812;12.872;2024-03-08T01:35:22;42.57;;;24.17;;
4674;SDS011;2351;50.812;12.872;2024-03-08T01:37:55;48.50;;;25.17;;
4674;SDS011;2351;50.812;12.872;2024-03-08T01:40:26;51.00;;;25.90;;
4674;SDS011;2351;50.812;12.872;2024-03-08T01:45:47;48.43;;;25.30;;
4674;SDS011;2351;50.812;12.872;2024-03-08T01:48:19;53.80;;;27.20;;
4674;SDS011;2351;50.812;12.872;2024-03-08T01:50:53;50.53;;;27.80;;
4674;SDS011;2351;50.812;12.872;2024-03-08T01:53:27;59.33;;;28.30;;
4674;SDS011;2351;50.812;12.872;2024-03-08T01:56:00;57.47;;;27.43;;
4674;SDS011;2351;50.812;12.872;2024-03-08T01:58:33;52.13;;;26.83;;
4674;SDS011;2351;50.812;12.872;2024-03-08T02:01:06;55.70;;;28.13;;
4674;SDS011;2351;50.812;12.872;2024-03-08T02:03:39;56.20;;;28.27;;
4674;SDS011;2351;50.812;12.872;2024-03-08T02:06:11;53.87;;;26.67;;
4674;SDS011;2351;50.812;12.872;2024-03-08T02:08:45;51.00;;;26.10;;
4674;SDS011;2351;50.812;12.872;2024-03-08T02:11:18;47.83;;;25.30;;
4674;SDS011;2351;50.812;12.872;2024-03-08T02:13:50;48.83;;;25.80;;
4674;SDS011;2351;50.812;12.872;2024-03-08T02:16:22;55.73;;;27.17;;
4674;SDS011;2351;50.812;12.872;2024-03-08T02:18:54;48.80;;;25.40;;
4674;SDS011;2351;50.812;12.872;2024-03-08T02:21:27;56.60;;;28.73;;
4674;SDS011;2351;50.812;12.872;2024-03-08T02:24:01;53.60;;;26.67;;
4674;SDS011;2351;50.812;12.872;2024-03-08T02:26:32;53.00;;;28.27;;
4674;SDS011;2351;50.812;12.872;2024-03-08T02:29:04;55.17;;;27.80;;
4674;SDS011;2351;50.812;12.872;2024-03-08T02:31:36;49.97;;;27.10;;
4674;SDS011;2351;50.812;12.872;2024-03-08T02:34:09;52.20;;;26.90;;
4674;SDS011;2351;50.812;12.872;2024-03-08T02:36:42;51.77;;;25.97;;
4674;SDS011;2351;50.812;12.872;2024-03-08T02:39:14;52.53;;;28.10;;
4674;SDS011;2351;50.812;12.872;2024-03-08T02:41:46;54.70;;;27.10;;
4674;SDS011;2351;50.812;12.872;2024-03-08T02:44:17;63.83;;;28.60;;
4674;SDS011;2351;50.812;12.872;2024-03-08T02:46:51;60.60;;;26.53;;
4674;SDS011;2351;50.812;12.872;2024-03-08T02:49:25;51.90;;;25.90;;
4674;SDS011;2351;50.812;12.872;2024-03-08T02:51:58;48.10;;;24.23;;
4674;SDS011;2351;50.812;12.872;2024-03-08T02:54:30;55.83;;;25.77;;
4674;SDS011;2351;50.812;12.872;2024-03-08T02:57:02;51.93;;;26.30;;
4674;SDS011;2351;50.812;12.872;2024-03-08T02:59:34;50.90;;;24.70;;
4674;SDS011;2351;50.812;12.872;2024-03-08T03:02:05;62.97;;;26.70;;
4674;SDS011;2351;50.812;12.872;2024-03-08T03:04:39;56.43;;;26.30;;
4674;SDS011;2351;50.812;12.872;2024-03-08T03:07:12;46.03;;;23.70;;
4674;SDS011;2351;50.812;12.872;2024-03-08T03:09:44;54.73;;;23.90;;
4674;SDS011;2351;50.812;12.872;2024-03-08T03:12:16;51.80;;;24.17;;
4674;SDS011;2351;50.812;12.872;2024-03-08T03:14:48;47.90;;;22.70;;
4674;SDS011;2351;50.812;12.872;2024-03-08T03:17:19;51.53;;;23.50;;
4674;SDS011;2351;50.812;12.872;2024-03-08T03:19:51;48.23;;;23.40;;
4674;SDS011;2351;50.812;12.872;2024-03-08T03:22:24;52.63;;;24.03;;
4674;SDS011;2351;50.812;12.872;2024-03-08T03:24:56;46.93;;;24.57;;
4674;SDS011;2351;50.812;12.872;2024-03-08T03:27:31;47.63;;;24.03;;
4674;SDS011;2351;50.812;12.872;2024-03-08T03:30:03;61.53;;;27.33;;
4674;SDS011;2351;50.812;12.872;2024-03-08T03:32:51;54.93;;;25.27;;
4674;SDS011;2351;50.812;12.872;2024-03-08T03:35:22;52.43;;;25.93;;
4674;SDS011;2351;50.812;12.872;2024-03-08T03:37:55;52.77;;;24.87;;
4674;SDS011;2351;50.812;12.872;2024-03-08T03:40:36;53.20;;;25.07;;
4674;SDS011;2351;50.812;12.872;2024-03-08T03:43:08;50.90;;;25.13;;
4674;SDS011;2351;50.812;12.872;2024-03-08T03:45:41;57.80;;;24.97;;
4674;SDS011;2351;50.812;12.872;2024-03-08T03:48:12;54.37;;;24.63;;
4674;SDS011;2351;50.812;12.872;2024-03-08T03:50:44;54.20;;;25.67;;
4674;SDS011;2351;50.812;12.872;2024-03-08T03:53:17;53.17;;;23.80;;
4674;SDS011;2351;50.812;12.872;2024-03-08T03:55:49;53.90;;;25.27;;
4674;SDS011;2351;50.812;12.872;2024-03-08T03:58:20;51.33;;;25.17;;
4674;SDS011;2351;50.812;12.872;2024-03-08T04:00:52;51.27;;;24.33;;
4674;SDS011;2351;50.812;12.872;2024-03-08T04:03:24;54.30;;;25.13;;
4674;SDS011;2351;50.812;12.872;2024-03-08T04:05:56;49.87;;;22.53;;
4674;SDS011;2351;50.812;12.872;2024-03-08T04:08:29;54.83;;;24.90;;
4674;SDS011;2351;50.812;12.872;2024-03-08T04:11:01;64.10;;;23.23;;
4674;SDS011;2351;50.812;12.872;2024-03-08T04:13:32;51.50;;;24.13;;
4674;SDS011;2351;50.812;12.872;2024-03-08T04:16:04;54.73;;;24.37;;
4674;SDS011;2351;50.812;12.872;2024-03-08T04:18:38;54.57;;;25.50;;
4674;SDS011;2351;50.812;12.872;2024-03-08T04:21:09;54.03;;;26.03;;
4674;SDS011;2351;50.812;12.872;2024-03-08T04:23:42;52.33;;;24.50;;
4674;SDS011;2351;50.812;12.872;2024-03-08T04:26:15;46.93;;;24.37;;
4674;SDS011;2351;50.812;12.872;2024-03-08T04:28:46;55.70;;;24.97;;
4674;SDS011;2351;50.812;12.872;2024-03-08T04:31:18;52.27;;;24.10;;
4674;SDS011;2351;50.812;12.872;2024-03-08T04:33:50;45.17;;;23.27;;
4674;SDS011;2351;50.812;12.872;2024-03-08T04:36:22;50.77;;;23.67;;
4674;SDS011;2351;50.812;12.872;2024-03-08T04:38:56;51.80;;;23.73;;
4674;SDS011;2351;50.812;12.872;2024-03-08T04:41:28;49.30;;;24.47;;
4674;SDS011;2351;50.812;12.872;2024-03-08T04:44:00;48.57;;;24.40;;
4674;SDS011;2351;50.812;12.872;2024-03-08T04:46:32;50.57;;;22.97;;
4674;SDS011;2351;50.812;12.872;2024-03-08T04:49:05;49.23;;;24.17;;
4674;SDS011;2351;50.812;12.872;2024-03-08T04:51:37;49.53;;;23.33;;
4674;SDS011;2351;50.812;12.872;2024-03-08T04:54:10;49.90;;;24.27;;
4674;SDS011;2351;50.812;12.872;2024-03-08T04:56:41;52.77;;;25.43;;
4674;SDS011;2351;50.812;12.872;2024-03-08T04:59:13;54.67;;;26.77;;
4674;SDS011;2351;50.812;12.872;2024-03-08T05:01:45;52.47;;;25.10;;
4674;SDS011;2351;50.812;12.872;2024-03-08T05:04:17;46.20;;;23.57;;
4674;SDS011;2351;50.812;12.872;2024-03-08T05:06:49;43.47;;;22.67;;
4674;SDS011;2351;50.812;12.872;2024-03-08T05:09:22;50.90;;;23.80;;
4674;SDS011;2351;50.812;12.872;2024-03-08T05:11:53;60.77;;;25.40;;
4674;SDS011;2351;50.812;12.872;2024-03-08T05:14:25;49.87;;;22.97;;
4674;SDS011;2351;50.812;12.872;2024-03-08T05:16:57;46.30;;;23.53;;
4674;SDS011;2351;50.812;12.872;2024-03-08T05:19:28;52.30;;;24.20;;
4674;SDS011;2351;50.812;12.872;2024-03-08T05:22:01;56.97;;;24.47;;
4674;SDS011;2351;50.812;12.872;2024-03-08T05:24:34;55.33;;;26.10;;
4674;SDS011;2351;50.812;12.872;2024-03-08T05:27:06;61.00;;;27.90;;
4674;SDS011;2351;50.812;12.872;2024-03-08T05:29:38;50.90;;;24.63;;
4674;SDS011;2351;50.812;12.872;2024-03-08T05:32:10;50.83;;;22.27;;
4674;SDS011;2351;50.812;12.872;2024-03-08T05:34:42;51.50;;;23.87;;
4674;SDS011;2351;50.812;12.872;2024-03-08T05:37:14;55.93;;;27.40;;
4674;SDS011;2351;50.812;12.872;2024-03-08T05:39:47;55.87;;;24.97;;
4674;SDS011;2351;50.812;12.872;2024-03-08T05:42:19;48.33;;;24.20;;
4674;SDS011;2351;50.812;12.872;2024-03-08T05:44:51;53.53;;;23.73;;
4674;SDS011;2351;50.812;12.872;2024-03-08T05:47:23;57.00;;;25.57;;
4674;SDS011;2351;50.812;12.872;2024-03-08T05:49:54;52.13;;;25.77;;
4674;SDS011;2351;50.812;12.872;2024-03-08T05:52:26;48.57;;;21.33;;
4674;SDS011;2351;50.812;12.872;2024-03-08T05:54:59;46.90;;;24.20;;
4674;SDS011;2351;50.812;12.872;2024-03-08T05:57:31;67.97;;;25.60;;
4674;SDS011;2351;50.812;12.872;2024-03-08T06:00:03;61.00;;;28.67;;
4674;SDS011;2351;50.812;12.872;2024-03-08T06:02:35;45.20;;;22.00;;
4674;SDS011;2351;50.812;12.872;2024-03-08T06:05:11;50.43;;;24.00;;
4674;SDS011;2351;50.812;12.872;2024-03-08T06:07:42;55.97;;;26.07;;
4674;SDS011;2351;50.812;12.872;2024-03-08T06:10:15;57.30;;;26.50;;
4674;SDS011;2351;50.812;12.872;2024-03-08T06:12:47;55.13;;;24.97;;
4674;SDS011;2351;50.812;12.872;2024-03-08T06:15:19;50.53;;;23.20;;
4674;SDS011;2351;50.812;12.872;2024-03-08T06:17:51;54.33;;;24.57;;
4674;SDS011;2351;50.812;12.872;2024-03-08T06:20:23;55.93;;;26.87;;
4674;SDS011;2351;50.812;12.872;2024-03-08T06:22:56;49.77;;;24.87;;
4674;SDS011;2351;50.812;12.872;2024-03-08T06:25:29;57.13;;;25.07;;
4674;SDS011;2351;50.812;12.872;2024-03-08T06:28:01;51.27;;;24.20;;
4674;SDS011;2351;50.812;12.872;2024-03-08T06:30:33;57.83;;;24.87;;
4674;SDS011;2351;50.812;12.872;2024-03-08T06:33:05;46.33;;;22.87;;
4674;SDS011;2351;50.812;12.872;2024-03-08T06:35:37;45.23;;;23.87;;
4674;SDS011;2351;50.812;12.872;2024-03-08T06:38:09;41.20;;;21.70;;
4674;SDS011;2351;50.812;12.872;2024-03-08T06:40:43;49.30;;;24.20;;
4674;SDS011;2351;50.812;12.872;2024-03-08T06:43:17;45.20;;;23.53;;
4674;SDS011;2351;50.812;12.872;2024-03-08T06:45:49;55.20;;;24.93;;
4674;SDS011;2351;50.812;12.872;2024-03-08T06:48:22;40.63;;;22.90;;
4674;SDS011;2351;50.812;12.872;2024-03-08T06:50:54;45.27;;;25.00;;
4674;SDS011;2351;50.812;12.872;2024-03-08T06:53:26;45.60;;;24.73;;
4674;SDS011;2351;50.812;12.872;2024-03-08T06:55:59;45.27;;;25.33;;
4674;SDS011;2351;50.812;12.872;2024-03-08T06:58:31;47.00;;;24.97;;
4674;SDS011;2351;50.812;12.872;2024-03-08T07:01:02;42.87;;;24.53;;
4674;SDS011;2351;50.812;12.872;2024-03-08T07:03:37;48.73;;;24.83;;
4674;SDS011;2351;50.812;12.872;2024-03-08T07:06:13;45.20;;;25.80;;
4674;SDS011;2351;50.812;12.872;2024-03-08T07:08:45;42.20;;;23.73;;
4674;SDS011;2351;50.812;12.872;2024-03-08T07:11:20;48.23;;;25.57;;
4674;SDS011;2351;50.812;12.872;2024-03-08T07:13:51;40.93;;;24.77;;
4674;SDS011;2351;50.812;12.872;2024-03-08T07:16:24;41.27;;;22.47;;
4674;SDS011;2351;50.812;12.872;2024-03-08T07:18:56;49.97;;;25.17;;
4674;SDS011;2351;50.812;12.872;2024-03-08T07:21:29;47.40;;;25.30;;
4674;SDS011;2351;50.812;12.872;2024-03-08T07:24:00;41.37;;;24.50;;
4674;SDS011;2351;50.812;12.872;2024-03-08T07:26:51;42.53;;;23.77;;
4674;SDS011;2351;50.812;12.872;2024-03-08T07:29:22;45.53;;;24.60;;
4674;SDS011;2351;50.812;12.872;2024-03-08T07:31:54;47.03;;;24.57;;
4674;SDS011;2351;50.812;12.872;2024-03-08T07:34:32;43.60;;;24.87;;
4674;SDS011;2351;50.812;12.872;2024-03-08T07:37:03;40.83;;;24.53;;
4674;SDS011;2351;50.812;12.872;2024-03-08T07:39:35;42.33;;;23.63;;
4674;SDS011;2351;50.812;12.872;2024-03-08T07:42:08;47.53;;;24.90;;
4674;SDS011;2351;50.812;12.872;2024-03-08T07:44:41;41.00;;;23.40;;
4674;SDS011;2351;50.812;12.872;2024-03-08T07:47:13;42.90;;;23.37;;
4674;SDS011;2351;50.812;12.872;2024-03-08T07:49:45;47.77;;;23.20;;
4674;SDS011;2351;50.812;12.872;2024-03-08T07:52:16;47.73;;;22.50;;
4674;SDS011;2351;50.812;12.872;2024-03-08T07:54:48;44.20;;;22.60;;
4674;SDS011;2351;50.812;12.872;2024-03-08T07:57:21;46.70;;;24.00;;
4674;SDS011;2351;50.812;12.872;2024-03-08T07:59:53;40.47;;;21.60;;
4674;SDS011;2351;50.812;12.872;2024-03-08T08:02:24;41.00;;;23.03;;
4674;SDS011;2351;50.812;12.872;2024-03-08T08:04:56;36.23;;;20.80;;
4674;SDS011;2351;50.812;12.872;2024-03-08T08:07:29;39.33;;;21.87;;
4674;SDS011;2351;50.812;12.872;2024-03-08T08:10:01;40.87;;;23.00;;
4674;SDS011;2351;50.812;12.872;2024-03-08T08:12:34;40.23;;;22.20;;
4674;SDS011;2351;50.812;12.872;2024-03-08T08:15:05;37.87;;;20.47;;
4674;SDS011;2351;50.812;12.872;2024-03-08T08:17:37;38.13;;;20.27;;
4674;SDS011;2351;50.812;12.872;2024-03-08T08:20:10;40.47;;;20.73;;
4674;SDS011;2351;50.812;12.872;2024-03-08T08:22:43;38.93;;;21.50;;
4674;SDS011;2351;50.812;12.872;2024-03-08T08:25:14;44.00;;;21.87;;
4674;SDS011;2351;50.812;12.872;2024-03-08T08:27:51;33.07;;;19.17;;
4674;SDS011;2351;50.812;12.872;2024-03-08T08:30:23;35.13;;;18.93;;
4674;SDS011;2351;50.812;12.872;2024-03-08T08:32:55;34.03;;;19.30;;
4674;SDS011;2351;50.812;12.872;2024-03-08T08:35:30;37.17;;;19.33;;
4674;SDS011;2351;50.812;12.872;2024-03-08T08:38:03;33.93;;;19.70;;
4674;SDS011;2351;50.812;12.872;2024-03-08T08:40:35;32.93;;;20.60;;
4674;SDS011;2351;50.812;12.872;2024-03-08T08:43:08;37.00;;;21.13;;
4674;SDS011;2351;50.812;12.872;2024-03-08T08:45:40;40.93;;;20.90;;
4674;SDS011;2351;50.812;12.872;2024-03-08T08:48:12;34.10;;;19.23;;
4674;SDS011;2351;50.812;12.872;2024-03-08T08:50:44;38.60;;;20.10;;
4674;SDS011;2351;50.812;12.872;2024-03-08T08:53:17;41.23;;;21.00;;
4674;SDS011;2351;50.812;12.872;2024-03-08T08:55:48;39.83;;;20.03;;
4674;SDS011;2351;50.812;12.872;2024-03-08T08:58:21;37.00;;;20.33;;
4674;SDS011;2351;50.812;12.872;2024-03-08T09:00:53;38.60;;;19.77;;
4674;SDS011;2351;50.812;12.872;2024-03-08T09:03:25;33.97;;;19.27;;
4674;SDS011;2351;50.812;12.872;2024-03-08T09:05:57;41.60;;;18.60;;
4674;SDS011;2351;50.812;12.872;2024-03-08T09:08:29;32.90;;;18.70;;
4674;SDS011;2351;50.812;12.872;2024-03-08T09:11:00;35.50;;;19.20;;
4674;SDS011;2351;50.812;12.872;2024-03-08T09:13:34;38.00;;;19.07;;
4674;SDS011;2351;50.812;12.872;2024-03-08T09:16:05;36.23;;;19.97;;
4674;SDS011;2351;50.812;12.872;2024-03-08T09:18:37;35.30;;;19.63;;
4674;SDS011;2351;50.812;12.872;2024-03-08T09:21:09;36.80;;;20.07;;
4674;SDS011;2351;50.812;12.872;2024-03-08T09:23:41;34.17;;;18.80;;
4674;SDS011;2351;50.812;12.872;2024-03-08T09:26:14;39.93;;;21.13;;
4674;SDS011;2351;50.812;12.872;2024-03-08T09:28:48;36.03;;;18.77;;
4674;SDS011;2351;50.812;12.872;2024-03-08T09:31:20;36.50;;;19.27;;
4674;SDS011;2351;50.812;12.872;2024-03-08T09:33:51;35.97;;;18.10;;
4674;SDS011;2351;50.812;12.872;2024-03-08T09:36:23;57.37;;;19.67;;
4674;SDS011;2351;50.812;12.872;2024-03-08T09:38:55;33.87;;;18.47;;
4674;SDS011;2351;50.812;12.872;2024-03-08T09:41:26;34.70;;;19.60;;
4674;SDS011;2351;50.812;12.872;2024-03-08T09:44:01;35.17;;;18.00;;
4674;SDS011;2351;50.812;12.872;2024-03-08T09:46:35;33.73;;;16.90;;
4674;SDS011;2351;50.812;12.872;2024-03-08T09:49:07;28.33;;;16.97;;
4674;SDS011;2351;50.812;12.872;2024-03-08T09:51:41;28.40;;;16.17;;
4674;SDS011;2351;50.812;12.872;2024-03-08T09:54:13;28.80;;;14.47;;
4674;SDS011;2351;50.812;12.872;2024-03-08T09:56:47;26.83;;;15.57;;
4674;SDS011;2351;50.812;12.872;2024-03-08T09:59:23;28.47;;;15.87;;
4674;SDS011;2351;50.812;12.872;2024-03-08T10:02:14;28.93;;;14.40;;
4674;SDS011;2351;50.812;12.872;2024-03-08T10:04:47;27.60;;;15.50;;
4674;SDS011;2351;50.812;12.872;2024-03-08T10:07:18;33.10;;;16.70;;
4674;SDS011;2351;50.812;12.872;2024-03-08T10:09:51;28.73;;;15.80;;
4674;SDS011;2351;50.812;12.872;2024-03-08T10:12:23;35.27;;;19.20;;
4674;SDS011;2351;50.812;12.872;2024-03-08T10:14:57;26.77;;;15.93;;
4674;SDS011;2351;50.812;12.872;2024-03-08T10:17:30;27.40;;;14.33;;
4674;SDS011;2351;50.812;12.872;2024-03-08T10:20:02;26.57;;;15.07;;
4674;SDS011;2351;50.812;12.872;2024-03-08T10:22:44;26.13;;;14.33;;
4674;SDS011;2351;50.812;12.872;2024-03-08T10:25:17;25.93;;;14.07;;
4674;SDS011;2351;50.812;12.872;2024-03-08T10:27:49;23.37;;;13.10;;
4674;SDS011;2351;50.812;12.872;2024-03-08T10:30:23;22.43;;;13.80;;
4674;SDS011;2351;50.812;12.872;2024-03-08T10:32:54;26.37;;;13.60;;
4674;SDS011;2351;50.812;12.872;2024-03-08T10:35:26;34.43;;;14.30;;
4674;SDS011;2351;50.812;12.872;2024-03-08T10:37:58;25.23;;;13.30;;
4674;SDS011;2351;50.812;12.872;2024-03-08T10:40:33;25.57;;;13.67;;
4674;SDS011;2351;50.812;12.872;2024-03-08T10:43:06;21.90;;;13.70;;
4674;SDS011;2351;50.812;12.872;2024-03-08T10:45:46;22.40;;;13.43;;
4674;SDS011;2351;50.812;12.872;2024-03-08T10:48:25;26.90;;;15.03;;
4674;SDS011;2351;50.812;12.872;2024-03-08T10:51:01;23.40;;;14.33;;
4674;SDS011;2351;50.812;12.872;2024-03-08T10:53:34;23.60;;;13.63;;
4674;SDS011;2351;50.812;12.872;2024-03-08T10:56:09;23.97;;;13.90;;
4674;SDS011;2351;50.812;12.872;2024-03-08T10:58:41;24.97;;;12.50;;
4674;SDS011;2351;50.812;12.872;2024-03-08T11:01:15;22.50;;;13.20;;
4674;SDS011;2351;50.812;12.872;2024-03-08T11:03:47;25.30;;;14.30;;
4674;SDS011;2351;50.812;12.872;2024-03-08T11:06:23;21.50;;;13.13;;
4674;SDS011;2351;50.812;12.872;2024-03-08T11:09:02;28.10;;;17.27;;
4674;SDS011;2351;50.812;12.872;2024-03-08T11:11:34;26.60;;;14.90;;
4674;SDS011;2351;50.812;12.872;2024-03-08T11:14:05;29.03;;;15.33;;
4674;SDS011;2351;50.812;12.872;2024-03-08T11:16:58;25.00;;;14.10;;
4674;SDS011;2351;50.812;12.872;2024-03-08T11:19:36;23.37;;;13.90;;
4674;SDS011;2351;50.812;12.872;2024-03-08T11:22:12;25.30;;;15.47;;
4674;SDS011;2351;50.812;12.872;2024-03-08T11:24:53;26.17;;;14.90;;
4674;SDS011;2351;50.812;12.872;2024-03-08T11:27:30;32.90;;;15.13;;
4674;SDS011;2351;50.812;12.872;2024-03-08T11:30:03;32.53;;;15.40;;
4674;SDS011;2351;50.812;12.872;2024-03-08T11:32:45;24.97;;;14.93;;
4674;SDS011;2351;50.812;12.872;2024-03-08T11:35:18;24.30;;;14.97;;
4674;SDS011;2351;50.812;12.872;2024-03-08T11:37:51;24.70;;;14.30;;
4674;SDS011;2351;50.812;12.872;2024-03-08T11:40:22;23.70;;;13.73;;
4674;SDS011;2351;50.812;12.872;2024-03-08T11:42:54;22.47;;;13.60;;
4674;SDS011;2351;50.812;12.872;2024-03-08T11:45:26;21.97;;;14.00;;
4674;SDS011;2351;50.812;12.872;2024-03-08T11:48:00;24.80;;;14.23;;
4674;SDS011;2351;50.812;12.872;2024-03-08T11:50:33;27.60;;;15.00;;
4674;SDS011;2351;50.812;12.872;2024-03-08T11:53:05;27.57;;;14.43;;
4674;SDS011;2351;50.812;12.872;2024-03-08T11:55:38;22.00;;;12.60;;
4674;SDS011;2351;50.812;12.872;2024-03-08T11:58:12;25.80;;;13.37;;
4674;SDS011;2351;50.812;12.872;2024-03-08T12:00:44;21.37;;;12.93;;
4674;SDS011;2351;50.812;12.872;2024-03-08T12:03:17;24.83;;;13.73;;
4674;SDS011;2351;50.812;12.872;2024-03-08T12:05:56;27.63;;;13.97;;
4674;SDS011;2351;50.812;12.872;2024-03-08T12:08:30;26.40;;;13.20;;
4674;SDS011;2351;50.812;12.872;2024-03-08T12:11:03;24.13;;;13.57;;
4674;SDS011;2351;50.812;12.872;2024-03-08T12:13:35;19.10;;;11.53;;
4674;SDS011;2351;50.812;12.872;2024-03-08T12:16:07;30.53;;;11.80;;
4674;SDS011;2351;50.812;12.872;2024-03-08T12:18:42;19.63;;;12.90;;
4674;SDS011;2351;50.812;12.872;2024-03-08T12:21:14;19.83;;;12.20;;
4674;SDS011;2351;50.812;12.872;2024-03-08T12:24:01;18.50;;;11.37;;
4674;SDS011;2351;50.812;12.872;2024-03-08T12:26:35;23.20;;;13.73;;
4674;SDS011;2351;50.812;12.872;2024-03-08T12:29:20;25.00;;;15.13;;
4674;SDS011;2351;50.812;12.872;2024-03-08T12:31:54;20.73;;;12.47;;
4674;SDS011;2351;50.812;12.872;2024-03-08T12:34:29;21.00;;;12.90;;
4674;SDS011;2351;50.812;12.872;2024-03-08T12:37:02;19.97;;;12.60;;
4674;SDS011;2351;50.812;12.872;2024-03-08T12:39:37;17.57;;;11.00;;
4674;SDS011;2351;50.812;12.872;2024-03-08T12:42:09;23.13;;;13.17;;
4674;SDS011;2351;50.812;12.872;2024-03-08T12:44:41;22.73;;;14.17;;
4674;SDS011;2351;50.812;12.872;2024-03-08T12:47:13;22.33;;;13.07;;
4674;SDS011;2351;50.812;12.872;2024-03-08T12:49:46;26.27;;;14.30;;
4674;SDS011;2351;50.812;12.872;2024-03-08T12:52:18;24.97;;;15.30;;
4674;SDS011;2351;50.812;12.872;2024-03-08T12:54:50;23.80;;;15.33;;
4674;SDS011;2351;50.812;12.872;2024-03-08T12:57:21;24.43;;;15.00;;
4674;SDS011;2351;50.812;12.872;2024-03-08T12:59:57;22.60;;;14.60;;
4674;SDS011;2351;50.812;12.872;2024-03-08T13:02:28;26.33;;;14.03;;
4674;SDS011;2351;50.812;12.872;2024-03-08T13:05:02;24.17;;;14.10;;
4674;SDS011;2351;50.812;12.872;2024-03-08T13:07:35;27.40;;;15.30;;
4674;SDS011;2351;50.812;12.872;2024-03-08T13:10:08;23.13;;;14.20;;
4674;SDS011;2351;50.812;12.872;2024-03-08T13:12:44;25.30;;;14.80;;
4674;SDS011;2351;50.812;12.872;2024-03-08T13:15:16;22.20;;;14.10;;
4674;SDS011;2351;50.812;12.872;2024-03-08T13:17:50;27.23;;;14.90;;
4674;SDS011;2351;50.812;12.872;2024-03-08T13:20:23;24.43;;;14.70;;
4674;SDS011;2351;50.812;12.872;2024-03-08T13:22:58;22.30;;;13.73;;
4674;SDS011;2351;50.812;12.872;2024-03-08T13:25:31;31.43;;;13.67;;
4674;SDS011;2351;50.812;12.872;2024-03-08T13:28:03;23.33;;;13.10;;
4674;SDS011;2351;50.812;12.872;2024-03-08T13:30:36;22.80;;;14.43;;
4674;SDS011;2351;50.812;12.872;2024-03-08T13:33:08;22.93;;;14.40;;
4674;SDS011;2351;50.812;12.872;2024-03-08T13:35:41;27.80;;;12.83;;
4674;SDS011;2351;50.812;12.872;2024-03-08T13:38:13;24.07;;;14.40;;
4674;SDS011;2351;50.812;12.872;2024-03-08T13:40:45;25.23;;;13.70;;
4674;SDS011;2351;50.812;12.872;2024-03-08T13:43:16;21.83;;;11.83;;
4674;SDS011;2351;50.812;12.872;2024-03-08T13:45:48;25.00;;;13.23;;
4674;SDS011;2351;50.812;12.872;2024-03-08T13:48:20;22.50;;;14.33;;
4674;SDS011;2351;50.812;12.872;2024-03-08T13:50:53;30.20;;;15.20;;
4674;SDS011;2351;50.812;12.872;2024-03-08T13:53:27;21.63;;;13.20;;
4674;SDS011;2351;50.812;12.872;2024-03-08T13:55:59;27.00;;;14.73;;
4674;SDS011;2351;50.812;12.872;2024-03-08T13:58:31;21.00;;;13.20;;
4674;SDS011;2351;50.812;12.872;2024-03-08T14:01:03;23.17;;;13.30;;
4674;SDS011;2351;50.812;12.872;2024-03-08T14:03:39;26.40;;;14.50;;
4674;SDS011;2351;50.812;12.872;2024-03-08T14:06:13;24.90;;;13.90;;
4674;SDS011;2351;50.812;12.872;2024-03-08T14:08:44;23.53;;;14.17;;
4674;SDS011;2351;50.812;12.872;2024-03-08T14:11:16;25.80;;;13.77;;
4674;SDS011;2351;50.812;12.872;2024-03-08T14:13:48;25.60;;;14.63;;
4674;SDS011;2351;50.812;12.872;2024-03-08T14:16:21;27.80;;;14.80;;
4674;SDS011;2351;50.812;12.872;2024-03-08T14:18:52;26.60;;;14.33;;
4674;SDS011;2351;50.812;12.872;2024-03-08T14:21:25;23.87;;;14.97;;
4674;SDS011;2351;50.812;12.872;2024-03-08T14:23:57;25.70;;;15.17;;
4674;SDS011;2351;50.812;12.872;2024-03-08T14:26:29;31.00;;;15.57;;
4674;SDS011;2351;50.812;12.872;2024-03-08T14:29:00;22.53;;;14.30;;
4674;SDS011;2351;50.812;12.872;2024-03-08T14:31:32;27.53;;;14.47;;
4674;SDS011;2351;50.812;12.872;2024-03-08T14:34:03;25.33;;;14.80;;
4674;SDS011;2351;50.812;12.872;2024-03-08T14:36:38;26.00;;;15.27;;
4674;SDS011;2351;50.812;12.872;2024-03-08T14:39:10;25.03;;;14.63;;
4674;SDS011;2351;50.812;12.872;2024-03-08T14:41:42;26.37;;;16.63;;
4674;SDS011;2351;50.812;12.872;2024-03-08T14:44:14;30.60;;;17.40;;
4674;SDS011;2351;50.812;12.872;2024-03-08T14:46:46;26.93;;;15.80;;
4674;SDS011;2351;50.812;12.872;2024-03-08T14:49:19;31.93;;;16.87;;
4674;SDS011;2351;50.812;12.872;2024-03-08T14:51:52;35.07;;;17.43;;
4674;SDS011;2351;50.812;12.872;2024-03-08T14:54:24;27.57;;;16.83;;
4674;SDS011;2351;50.812;12.872;2024-03-08T14:56:56;30.60;;;16.83;;
4674;SDS011;2351;50.812;12.872;2024-03-08T14:59:27;30.97;;;18.00;;
4674;SDS011;2351;50.812;12.872;2024-03-08T15:02:00;28.70;;;17.77;;
4674;SDS011;2351;50.812;12.872;2024-03-08T15:04:36;31.00;;;17.80;;
4674;SDS011;2351;50.812;12.872;2024-03-08T15:07:12;32.17;;;17.57;;
4674;SDS011;2351;50.812;12.872;2024-03-08T15:09:44;27.87;;;16.77;;